PWSweather.com
Personal Weather Stations
Station Observations
KMILAPEE3
Lapeer Michigan, Lapeer, MI 48446

Lapeer MichiganLapeer, MI 48446

Lat: 43.057, Lon: -83.362

Elevation: 897

Station Type: Oregon Scientific WMR-968

Latest ConditionsUpdated 12:23:51 AM EST Tuesday, Feb 28, 2017
Currently Today's Max Today's Min Today's Average
Temperature 36.5°F2.5°C 36.5°F2.5°C 36.3°F2.4°C 36.4°F2.4°C
Dew Point 18.8°F-7.3°C 18.8°F-7.3°C 18.6°F-7.4°C 18.7°F-7.4°C
Winds 4.3 mph S6.9 kmh S 5.2 mph S8.4 kmh S - 4.4 mph 7.1 kmh
Wind Gusts 7.8 mph12.6 kmh 9.1 mph14.6 kmh - -
Humidity 48% 48% 48% 48%
Pressure 29.21 in989.2 mb 29.21 in989.2 mb 29.21 in989.2 mb -
Hour Temp Dew Point Humidity Winds Wind Gusts Pressure Precip Precip Rate Daily Precip Total
12:23 AM 36.5°F2.5°C 18.8°F-7.3°C 48% 3.9 mph S6.3 kmh S 7.8 mph12.6 kmh 29.21 in989.2 mb 0.00 in0.0 mm 0.00 in0.0 mm 0.00 in0.0 mm
12:22 AM 36.5°F2.5°C 18.8°F-7.3°C 48% 3.9 mph S6.3 kmh S 7.8 mph12.6 kmh 29.21 in989.2 mb 0.00 in0.0 mm 0.00 in0.0 mm 0.00 in0.0 mm
12:21 AM 36.5°F2.5°C 18.8°F-7.3°C 48% 4.5 mph S7.2 kmh S 7.8 mph12.6 kmh 29.21 in989.2 mb 0.00 in0.0 mm 0.00 in0.0 mm 0.00 in0.0 mm
12:20 AM 36.5°F2.5°C 18.8°F-7.3°C 48% 4.9 mph S7.9 kmh S 7.8 mph12.6 kmh 29.21 in989.2 mb 0.00 in0.0 mm 0.00 in0.0 mm 0.00 in0.0 mm
12:19 AM 36.5°F2.5°C 18.8°F-7.3°C 48% 4.5 mph S7.2 kmh S 7.8 mph12.6 kmh 29.21 in989.2 mb 0.00 in0.0 mm 0.00 in0.0 mm 0.00 in0.0 mm
12:18 AM 36.5°F2.5°C 18.8°F-7.3°C 48% 4.6 mph S7.4 kmh S 7.8 mph12.6 kmh 29.21 in989.2 mb 0.00 in0.0 mm 0.00 in0.0 mm 0.00 in0.0 mm
12:17 AM 36.5°F2.5°C 18.8°F-7.3°C 48% 4.9 mph S7.9 kmh S 7.8 mph12.6 kmh 29.21 in989.2 mb 0.00 in0.0 mm 0.00 in0.0 mm 0.00 in0.0 mm
12:16 AM 36.5°F2.5°C 18.8°F-7.3°C 48% 4.1 mph S6.6 kmh S 7.8 mph12.6 kmh 29.21 in989.2 mb 0.00 in0.0 mm 0.00 in0.0 mm 0.00 in0.0 mm
12:15 AM 36.5°F2.5°C 18.8°F-7.3°C 48% 4.0 mph S6.4 kmh S 7.8 mph12.6 kmh 29.21 in989.2 mb 0.00 in0.0 mm 0.00 in0.0 mm 0.00 in0.0 mm
12:14 AM 36.5°F2.5°C 18.8°F-7.3°C 48% 4.2 mph S6.8 kmh S 7.8 mph12.6 kmh 29.21 in989.2 mb 0.00 in0.0 mm 0.00 in0.0 mm 0.00 in0.0 mm
12:13 AM 36.5°F2.5°C 18.8°F-7.3°C 48% 3.8 mph S6.1 kmh S 8.4 mph13.5 kmh 29.21 in989.2 mb 0.00 in0.0 mm 0.00 in0.0 mm 0.00 in0.0 mm
12:12 AM 36.5°F2.5°C 18.8°F-7.3°C 48% 3.3 mph S5.3 kmh S 8.4 mph13.5 kmh 29.21 in989.2 mb 0.00 in0.0 mm 0.00 in0.0 mm 0.00 in0.0 mm
12:11 AM 36.5°F2.5°C 18.8°F-7.3°C 48% 3.3 mph S5.3 kmh S 8.4 mph13.5 kmh 29.21 in989.2 mb 0.00 in0.0 mm 0.00 in0.0 mm 0.00 in0.0 mm
12:10 AM 36.5°F2.5°C 18.8°F-7.3°C 48% 4.4 mph S7.1 kmh S 8.4 mph13.5 kmh 29.21 in989.2 mb 0.00 in0.0 mm 0.00 in0.0 mm 0.00 in0.0 mm
12:09 AM 36.5°F2.5°C 18.8°F-7.3°C 48% 4.7 mph S7.6 kmh S 8.4 mph13.5 kmh 29.21 in989.2 mb 0.00 in0.0 mm 0.00 in0.0 mm 0.00 in0.0 mm
12:08 AM 36.5°F2.5°C 18.8°F-7.3°C 48% 4.9 mph S7.9 kmh S 8.4 mph13.5 kmh 29.21 in989.2 mb 0.00 in0.0 mm 0.00 in0.0 mm 0.00 in0.0 mm
12:07 AM 36.3°F2.4°C 18.6°F-7.4°C 48% 5.0 mph S8.0 kmh S 9.1 mph14.6 kmh 29.21 in989.2 mb 0.00 in0.0 mm 0.00 in0.0 mm 0.00 in0.0 mm
12:06 AM 36.3°F2.4°C 18.6°F-7.4°C 48% 5.2 mph S8.4 kmh S 9.1 mph14.6 kmh 29.21 in989.2 mb 0.00 in0.0 mm 0.00 in0.0 mm 0.00 in0.0 mm
12:05 AM 36.3°F2.4°C 18.6°F-7.4°C 48% 4.0 mph S6.4 kmh S 9.1 mph14.6 kmh 29.21 in989.2 mb 0.00 in0.0 mm 0.00 in0.0 mm 0.00 in0.0 mm
12:04 AM 36.3°F2.4°C 18.6°F-7.4°C 48% 3.6 mph S5.8 kmh S 9.1 mph14.6 kmh 29.21 in989.2 mb 0.00 in0.0 mm 0.00 in0.0 mm 0.00 in0.0 mm
12:03 AM 36.3°F2.4°C 18.6°F-7.4°C 48% 5.0 mph S8.0 kmh S 9.1 mph14.6 kmh 29.21 in989.2 mb 0.00 in0.0 mm 0.00 in0.0 mm 0.00 in0.0 mm
12:02 AM 36.3°F2.4°C 18.6°F-7.4°C 48% 4.8 mph S7.7 kmh S 9.1 mph14.6 kmh 29.21 in989.2 mb 0.00 in0.0 mm 0.00 in0.0 mm 0.00 in0.0 mm
12:01 AM 36.3°F2.4°C 18.6°F-7.4°C 48% 4.6 mph S7.4 kmh S 9.1 mph14.6 kmh 29.21 in989.2 mb 0.00 in0.0 mm 0.00 in0.0 mm 0.00 in0.0 mm
12:00 AM 36.3°F2.4°C 18.6°F-7.4°C 48% 4.6 mph S7.4 kmh S 9.1 mph14.6 kmh 29.21 in989.2 mb 0.00 in0.0 mm 0.00 in0.0 mm 0.00 in0.0 mm